Norfolk, Virginia
Traffic Map
Current Weather Conditions
Norfolk, Virginia
Clear
Clear

Feels Like: 6°
Wind Chill: Ceiling: Unl
Heat Index: Visibility: 10mi
Dew Point: -3° Wind: 16mph
Humidity: 43% Direction: 340° (NNW)
Pressure: 30.16in Gusts: 26mph
Raw Report DataKORF 200351Z 34014G23KT 10SM CLR 09/M03 A3016 RMK AO2 PK WND 36027/0331 SLP211 T00941028
Traffic Incident Summary
Active as of:
Severity:
Category:
InformationThere was an issue retrieving the traffic information for this location. Please try a different location or try again shortly.
Advertisements